createdAt,value
2018-04-14T00:03:01.934Z,89.40
2018-04-14T00:06:06.010Z,89.35
2018-04-14T00:09:09.337Z,89.32
2018-04-14T00:12:13.405Z,89.38
2018-04-14T00:15:16.720Z,89.38
2018-04-14T00:18:20.037Z,89.06
2018-04-14T00:21:23.480Z,89.04
2018-04-14T00:24:26.821Z,89.14
2018-04-14T00:27:30.125Z,89.10
2018-04-14T00:30:33.461Z,89.40
2018-04-14T00:33:36.765Z,89.61
2018-04-14T00:36:40.082Z,89.70
2018-04-14T00:39:43.391Z,89.62
2018-04-14T00:42:46.733Z,89.36
2018-04-14T00:45:50.034Z,89.21
2018-04-14T00:48:53.395Z,89.05
2018-04-14T00:51:56.689Z,88.64
2018-04-14T00:54:59.997Z,88.72
2018-04-14T00:58:04.076Z,88.47
2018-04-14T01:01:07.377Z,88.34
2018-04-14T01:04:10.695Z,88.37
2018-04-14T01:07:13.988Z,88.36
2018-04-14T01:10:17.304Z,88.31
2018-04-14T01:13:21.373Z,88.00
2018-04-14T01:16:24.701Z,87.91
2018-04-14T01:19:28.009Z,87.52
2018-04-14T01:22:32.101Z,87.84
2018-04-14T01:25:35.424Z,88.08
2018-04-14T01:28:39.492Z,88.61
2018-04-14T01:31:42.809Z,89.04
2018-04-14T01:34:46.117Z,89.01
2018-04-14T01:37:49.433Z,89.11
2018-04-14T01:40:53.497Z,89.22
2018-04-14T01:43:56.817Z,89.30
2018-04-14T01:47:00.125Z,89.25
2018-04-14T01:50:03.460Z,89.67
2018-04-14T01:53:06.756Z,89.73
2018-04-14T01:56:10.086Z,89.78
2018-04-14T01:59:13.382Z,90.04
2018-04-14T02:02:16.709Z,90.03
2018-04-14T02:05:20.776Z,90.21
2018-04-14T02:08:24.088Z,90.25
2018-04-14T02:11:27.411Z,90.38
2018-04-14T02:14:30.705Z,90.27
2018-04-14T02:17:34.021Z,90.28
2018-04-14T02:20:38.085Z,90.09
2018-04-14T02:23:41.398Z,90.40
2018-04-14T02:26:44.710Z,90.35
2018-04-14T02:29:48.029Z,90.44
2018-04-14T02:32:51.332Z,90.36
2018-04-14T02:35:54.652Z,90.43
2018-04-14T02:38:57.966Z,90.28
2018-04-14T02:42:01.274Z,90.24
2018-04-14T02:45:04.606Z,90.21
2018-04-14T02:48:08.678Z,89.83
2018-04-14T02:51:12.013Z,89.47
2018-04-14T02:54:16.069Z,89.70
2018-04-14T02:57:19.385Z,89.58
2018-04-14T03:00:22.685Z,89.74
2018-04-14T03:03:26.002Z,89.10
2018-04-14T03:06:29.318Z,89.21
2018-04-14T03:09:32.656Z,89.50
2018-04-14T03:12:35.994Z,89.38
2018-04-14T03:15:39.293Z,89.62
2018-04-14T03:18:42.608Z,89.80
2018-04-14T03:21:46.677Z,89.95
2018-04-14T03:24:50.002Z,90.08
2018-04-14T03:27:53.313Z,90.13
2018-04-14T03:30:57.394Z,90.18
2018-04-14T03:34:00.691Z,90.36
2018-04-14T03:37:04.040Z,90.49
2018-04-14T03:40:07.366Z,90.56
2018-04-14T03:43:10.661Z,90.62
2018-04-14T03:46:13.989Z,90.53
2018-04-14T03:49:17.289Z,90.41
2018-04-14T03:52:20.613Z,90.38
2018-04-14T03:55:23.918Z,90.50
2018-04-14T03:58:27.257Z,90.42
2018-04-14T04:01:30.563Z,90.58
2018-04-14T04:04:33.898Z,90.73
2018-04-14T04:07:37.208Z,90.66
2018-04-14T04:10:40.528Z,90.80
2018-04-14T04:13:43.824Z,90.68
2018-04-14T04:16:47.149Z,90.58
2018-04-14T04:20:08.169Z,90.54
2018-04-14T04:23:29.064Z,90.45
2018-04-14T04:26:32.364Z,90.59
2018-04-14T04:29:35.697Z,90.79
2018-04-14T04:32:39.848Z,90.86
2018-04-14T04:35:43.165Z,91.01
2018-04-14T04:38:46.477Z,91.26
2018-04-14T04:41:49.804Z,91.13
2018-04-14T04:44:53.130Z,91.19
2018-04-14T04:47:56.445Z,91.08
2018-04-14T04:50:59.764Z,90.97
2018-04-14T04:54:03.086Z,91.15
2018-04-14T04:57:06.409Z,91.04
2018-04-14T05:00:09.730Z,91.31
2018-04-14T05:03:13.029Z,91.50
2018-04-14T05:06:16.353Z,91.82
2018-04-14T05:09:20.421Z,92.03
2018-04-14T05:12:23.770Z,92.14
2018-04-14T05:15:27.848Z,92.25
2018-04-14T05:18:31.194Z,92.31
2018-04-14T05:21:35.261Z,92.24
2018-04-14T05:24:38.586Z,92.03
2018-04-14T05:27:41.932Z,91.70
2018-04-14T05:30:45.240Z,91.49
2018-04-14T05:33:48.562Z,91.35
2018-04-14T05:36:51.867Z,91.38
2018-04-14T05:39:55.341Z,91.55
2018-04-14T05:42:58.667Z,91.79
2018-04-14T05:46:01.974Z,91.87
2018-04-14T05:49:06.064Z,91.93
2018-04-14T05:52:09.366Z,91.92
2018-04-14T05:55:12.712Z,91.91
2018-04-14T05:58:16.014Z,91.73
2018-04-14T06:01:19.329Z,91.57
2018-04-14T06:04:22.633Z,91.50
2018-04-14T06:07:25.951Z,91.46
2018-04-14T06:10:29.261Z,91.28
2018-04-14T06:13:33.352Z,91.08
2018-04-14T06:16:36.679Z,90.85
2018-04-14T06:19:40.773Z,90.68
2018-04-14T06:22:44.068Z,90.43
2018-04-14T06:25:47.385Z,90.61
2018-04-14T06:28:51.472Z,90.31
2018-04-14T06:31:54.775Z,89.29
2018-04-14T06:34:58.874Z,88.72
2018-04-14T06:38:02.188Z,89.01
2018-04-14T06:41:05.508Z,89.35
2018-04-14T06:44:08.845Z,89.58
2018-04-14T06:47:12.137Z,89.42
2018-04-14T06:50:16.206Z,89.33
2018-04-14T06:53:20.981Z,89.45
2018-04-14T06:56:24.298Z,89.68
2018-04-14T06:59:27.601Z,89.98
2018-04-14T07:02:31.174Z,90.04
2018-04-14T07:05:34.477Z,89.98
2018-04-14T07:08:37.809Z,89.92
2018-04-14T07:11:41.152Z,89.69
2018-04-14T07:14:44.477Z,89.51
2018-04-14T07:17:47.794Z,89.74
2018-04-14T07:20:51.108Z,89.84
2018-04-14T07:23:55.193Z,89.98
2018-04-14T07:26:58.499Z,90.24
2018-04-14T07:30:01.822Z,90.40
2018-04-14T07:33:05.897Z,90.43
2018-04-14T07:36:09.215Z,90.30
2018-04-14T07:39:12.538Z,90.17
2018-04-14T07:42:16.625Z,90.34
2018-04-14T07:45:19.945Z,90.40
2018-04-14T07:48:24.018Z,90.17
2018-04-14T07:51:27.375Z,89.72
2018-04-14T07:54:30.716Z,89.17
2018-04-14T07:57:34.049Z,89.95
2018-04-14T08:00:37.366Z,90.25
2018-04-14T08:03:40.685Z,90.16
2018-04-14T08:06:43.994Z,89.83
2018-04-14T08:09:47.309Z,90.20
2018-04-14T08:12:50.626Z,90.46
2018-04-14T08:15:54.689Z,90.42
2018-04-14T08:18:58.004Z,89.75
2018-04-14T08:22:01.323Z,89.04
2018-04-14T08:25:04.629Z,89.33
2018-04-14T08:28:07.938Z,89.50
2018-04-14T08:31:12.045Z,89.00
2018-04-14T08:34:15.348Z,88.65
2018-04-14T08:37:19.441Z,87.99
2018-04-14T08:40:23.534Z,88.11
2018-04-14T08:43:26.845Z,87.86
2018-04-14T08:46:30.177Z,87.71
2018-04-14T08:49:33.485Z,87.54
2018-04-14T08:52:36.804Z,87.77
2018-04-14T08:55:40.105Z,88.17
2018-04-14T08:58:43.429Z,88.10
2018-04-14T09:01:46.753Z,88.30
2018-04-14T09:04:50.825Z,88.14
2018-04-14T09:07:54.145Z,88.53
2018-04-14T09:10:58.220Z,88.42
2018-04-14T09:14:01.537Z,87.98
2018-04-14T09:17:04.837Z,88.41
2018-04-14T09:20:08.201Z,88.33
2018-04-14T09:23:11.527Z,87.01
2018-04-14T09:26:14.837Z,87.10
2018-04-14T09:29:18.161Z,87.53
2018-04-14T09:32:21.470Z,88.03
2018-04-14T09:35:24.789Z,87.39
2018-04-14T09:38:28.105Z,87.30
2018-04-14T09:41:31.430Z,87.57
2018-04-14T09:44:35.519Z,86.12
2018-04-14T09:47:38.821Z,86.79
2018-04-14T09:50:42.145Z,86.97
2018-04-14T09:53:46.229Z,87.81
2018-04-14T09:56:49.549Z,86.80
2018-04-14T09:59:53.649Z,86.89
2018-04-14T10:03:00.990Z,86.80
2018-04-14T10:06:04.266Z,87.04
2018-04-14T10:09:07.578Z,87.43
2018-04-14T10:12:10.903Z,86.83
2018-04-14T10:15:14.210Z,86.50
2018-04-14T10:18:17.540Z,86.73
2018-04-14T10:21:21.618Z,87.01
2018-04-14T10:24:24.937Z,86.97
2018-04-14T10:27:28.263Z,86.88
2018-04-14T10:30:31.589Z,87.07
2018-04-14T10:33:34.917Z,86.83
2018-04-14T10:36:38.239Z,86.83
2018-04-14T10:39:42.361Z,87.09
2018-04-14T10:42:46.418Z,87.48
2018-04-14T10:45:49.744Z,87.46
2018-04-14T10:48:53.041Z,87.58
2018-04-14T10:51:56.362Z,87.54
2018-04-14T10:55:00.445Z,87.91
2018-04-14T10:58:03.769Z,88.17
2018-04-14T11:01:07.850Z,88.59
2018-04-14T11:04:11.170Z,88.91
2018-04-14T11:07:14.493Z,89.08
2018-04-14T11:10:17.813Z,89.29
2018-04-14T11:13:21.445Z,89.16
2018-04-14T11:16:25.425Z,89.14
2018-04-14T11:19:28.742Z,89.20
2018-04-14T11:22:32.048Z,88.63
2018-04-14T11:25:35.370Z,89.32
2018-04-14T11:28:38.714Z,89.90
2018-04-14T11:31:42.025Z,89.71
2018-04-14T11:34:45.353Z,89.09
2018-04-14T11:37:48.672Z,89.61
2018-04-14T11:40:52.745Z,89.94
2018-04-14T11:43:56.065Z,89.92
2018-04-14T11:46:59.367Z,89.98
2018-04-14T11:50:03.457Z,90.17
2018-04-14T11:53:06.785Z,90.20
2018-04-14T11:56:10.868Z,89.74
2018-04-14T11:59:14.217Z,89.70
2018-04-14T12:02:17.568Z,90.14
2018-04-14T12:05:20.861Z,89.91
2018-04-14T12:08:24.169Z,89.94
2018-04-14T12:11:27.494Z,89.66
2018-04-14T12:14:31.559Z,89.63
2018-04-14T12:17:34.886Z,89.88
2018-04-14T12:20:38.965Z,89.72
2018-04-14T12:23:42.293Z,90.06
2018-04-14T12:26:45.606Z,89.25
2018-04-14T12:29:48.936Z,89.65
2018-04-14T12:32:52.265Z,89.83
2018-04-14T12:35:55.690Z,90.06
2018-04-14T12:38:59.068Z,90.28
2018-04-14T12:42:02.381Z,90.64
2018-04-14T12:45:06.474Z,90.80
2018-04-14T12:48:09.798Z,90.36
2018-04-14T12:51:13.113Z,90.39
2018-04-14T12:54:16.433Z,90.34
2018-04-14T12:57:19.761Z,90.58
2018-04-14T13:00:23.089Z,90.78
2018-04-14T13:03:27.152Z,90.91
2018-04-14T13:06:30.492Z,91.19
2018-04-14T13:09:34.566Z,90.93
2018-04-14T13:12:37.901Z,90.92
2018-04-14T13:15:41.218Z,90.77
2018-04-14T13:18:44.534Z,90.96
2018-04-14T13:21:47.854Z,90.95
2018-04-14T13:24:51.182Z,91.50
2018-04-14T13:27:54.507Z,91.76
2018-04-14T13:30:57.800Z,92.13
2018-04-14T13:34:01.121Z,92.43
2018-04-14T13:37:04.437Z,92.14
2018-04-14T13:40:07.763Z,91.88
2018-04-14T13:43:11.102Z,91.33
2018-04-14T13:46:15.182Z,91.33
2018-04-14T13:49:19.265Z,91.47
2018-04-14T13:52:22.571Z,91.03
2018-04-14T13:55:25.892Z,91.34
2018-04-14T13:58:29.969Z,91.33
2018-04-14T14:01:33.301Z,92.04
2018-04-14T14:04:37.403Z,91.30
2018-04-14T14:07:40.701Z,91.63
2018-04-14T14:10:44.031Z,91.98
2018-04-14T14:13:47.387Z,91.60
2018-04-14T14:16:50.704Z,91.62
2018-04-14T14:19:54.776Z,91.78
2018-04-14T14:22:58.098Z,92.17
2018-04-14T14:26:01.404Z,92.12
2018-04-14T14:29:04.729Z,92.40
2018-04-14T14:32:08.049Z,92.59
2018-04-14T14:35:12.137Z,92.58
2018-04-14T14:38:15.461Z,92.65
2018-04-14T14:41:18.765Z,93.32
2018-04-14T14:44:22.084Z,93.32
2018-04-14T14:47:25.380Z,93.43
2018-04-14T14:50:28.704Z,93.44
2018-04-14T14:53:32.777Z,92.93
2018-04-14T14:56:36.094Z,93.00
2018-04-14T14:59:39.397Z,92.49
2018-04-14T15:02:42.757Z,92.74
2018-04-14T15:05:46.109Z,93.07
2018-04-14T15:08:50.189Z,93.41
2018-04-14T15:11:53.497Z,93.24
2018-04-14T15:14:56.845Z,93.25
2018-04-14T15:18:00.157Z,93.42
2018-04-14T15:21:03.487Z,93.32
2018-04-14T15:24:06.792Z,93.81
2018-04-14T15:27:10.116Z,93.90
2018-04-14T15:30:13.424Z,94.09
2018-04-14T15:33:16.745Z,93.99
2018-04-14T15:36:20.057Z,93.60
2018-04-14T15:39:23.393Z,93.86
2018-04-14T15:42:26.717Z,94.06
2018-04-14T15:45:30.045Z,94.29
2018-04-14T15:48:33.348Z,94.26
2018-04-14T15:51:36.668Z,94.24
2018-04-14T15:54:40.757Z,93.83
2018-04-14T15:57:44.087Z,93.96
2018-04-14T16:00:48.157Z,93.60
2018-04-14T16:03:51.533Z,93.62
2018-04-14T16:06:55.580Z,94.14
2018-04-14T16:09:58.912Z,94.55
2018-04-14T16:13:02.985Z,94.16
2018-04-14T16:16:06.313Z,94.28
2018-04-14T16:19:10.387Z,93.80
2018-04-14T16:22:13.713Z,94.10
2018-04-14T16:25:17.037Z,94.12
2018-04-14T16:28:21.121Z,94.08
2018-04-14T16:31:24.488Z,94.11
2018-04-14T16:34:27.769Z,93.96
2018-04-14T16:37:31.117Z,94.06
2018-04-14T16:40:34.421Z,93.73
2018-04-14T16:43:38.509Z,94.01
2018-04-14T16:46:41.827Z,93.82
2018-04-14T16:49:45.153Z,93.99
2018-04-14T16:52:48.449Z,93.81
2018-04-14T16:55:51.778Z,93.85
2018-04-14T16:58:55.093Z,93.55
2018-04-14T17:01:58.439Z,93.50
2018-04-14T17:05:01.778Z,93.89
2018-04-14T17:08:05.091Z,94.00
2018-04-14T17:11:08.409Z,94.19
2018-04-14T17:14:12.505Z,93.92
2018-04-14T17:17:15.832Z,94.10
2018-04-14T17:20:19.917Z,94.26
2018-04-14T17:23:23.262Z,94.28
2018-04-14T17:26:26.576Z,94.40
2018-04-14T17:29:29.900Z,94.34
2018-04-14T17:32:33.261Z,94.45
2018-04-14T17:35:37.309Z,94.52
2018-04-14T17:38:40.614Z,94.54
2018-04-14T17:41:43.945Z,94.48
2018-04-14T17:44:47.244Z,94.21
2018-04-14T17:47:50.569Z,94.03
2018-04-14T17:50:53.864Z,94.28
2018-04-14T17:53:57.183Z,94.32
2018-04-14T17:57:00.481Z,94.20
2018-04-14T18:00:03.817Z,94.30
2018-04-14T18:03:08.624Z,93.87
2018-04-14T18:06:11.948Z,94.13
2018-04-14T18:09:16.049Z,94.08
2018-04-14T18:12:20.116Z,94.02
2018-04-14T18:15:23.433Z,94.14
2018-04-14T18:18:26.742Z,94.14
2018-04-14T18:21:30.076Z,94.16
2018-04-14T18:24:33.393Z,94.10
2018-04-14T18:27:36.714Z,94.25
2018-04-14T18:30:40.045Z,94.33
2018-04-14T18:33:44.125Z,94.41
2018-04-14T18:36:47.472Z,94.30
2018-04-14T18:39:50.828Z,94.30
2018-04-14T18:42:54.133Z,94.17
2018-04-14T18:45:57.454Z,94.36
2018-04-14T18:49:01.553Z,94.24
2018-04-14T18:52:04.901Z,94.09
2018-04-14T18:55:08.217Z,94.00
2018-04-14T18:58:11.544Z,94.17
2018-04-14T19:01:15.645Z,94.20
2018-04-14T19:04:18.944Z,94.15
2018-04-14T19:07:22.275Z,94.06
2018-04-14T19:10:25.584Z,94.11
2018-04-14T19:13:28.904Z,93.88
2018-04-14T19:16:32.212Z,93.98
2018-04-14T19:19:35.533Z,94.01
2018-04-14T19:22:38.855Z,94.02
2018-04-14T19:25:42.944Z,93.79
2018-04-14T19:28:46.265Z,93.56
2018-04-14T19:31:50.334Z,93.71
2018-04-14T19:34:53.644Z,93.74
2018-04-14T19:37:57.020Z,93.71
2018-04-14T19:41:00.285Z,93.76
2018-04-14T19:44:03.617Z,93.61
2018-04-14T19:47:06.920Z,93.56
2018-04-14T19:50:10.264Z,93.79
2018-04-14T19:53:13.573Z,93.84
2018-04-14T19:56:16.896Z,93.79
2018-04-14T19:59:20.201Z,93.62
2018-04-14T20:02:23.537Z,93.66
2018-04-14T20:05:27.605Z,93.74
2018-04-14T20:08:30.921Z,94.01
2018-04-14T20:11:34.225Z,93.97
2018-04-14T20:14:37.541Z,93.92
2018-04-14T20:17:41.615Z,94.15
2018-04-14T20:20:44.953Z,93.89
2018-04-14T20:23:49.024Z,94.01
2018-04-14T20:26:52.350Z,94.07
2018-04-14T20:29:55.692Z,93.83
2018-04-14T20:32:59.005Z,94.07
2018-04-14T20:36:02.329Z,94.34
2018-04-14T20:39:06.404Z,94.34
2018-04-14T20:42:09.723Z,94.57
2018-04-14T20:45:13.049Z,94.57
2018-04-14T20:48:16.373Z,94.73
2018-04-14T20:51:19.702Z,94.81
2018-04-14T20:54:23.040Z,94.69
2018-04-14T20:57:26.351Z,94.60
2018-04-14T21:00:29.676Z,94.53
2018-04-14T21:03:32.985Z,94.81
2018-04-14T21:06:36.314Z,94.87
2018-04-14T21:09:39.617Z,94.66
2018-04-14T21:12:42.937Z,94.68
2018-04-14T21:15:47.025Z,94.58
2018-04-14T21:18:50.390Z,94.71
2018-04-14T21:21:53.682Z,94.63
2018-04-14T21:24:57.001Z,94.60
2018-04-14T21:28:00.324Z,94.65
2018-04-14T21:31:04.401Z,94.39
2018-04-14T21:34:07.741Z,94.34
2018-04-14T21:37:11.046Z,94.32
2018-04-14T21:40:14.361Z,94.44
2018-04-14T21:43:17.669Z,94.59
2018-04-14T21:46:20.984Z,94.62
2018-04-14T21:49:24.289Z,94.68
2018-04-14T21:52:27.601Z,94.60
2018-04-14T21:55:30.928Z,94.58
2018-04-14T21:58:35.001Z,94.58
2018-04-14T22:01:38.361Z,94.51
2018-04-14T22:04:41.669Z,94.71
2018-04-14T22:07:45.009Z,94.71
2018-04-14T22:10:48.304Z,95.10
2018-04-14T22:13:51.617Z,95.16
2018-04-14T22:16:55.689Z,95.43
2018-04-14T22:19:59.029Z,95.42
2018-04-14T22:23:03.104Z,95.25
2018-04-14T22:26:06.421Z,95.03
2018-04-14T22:29:09.728Z,94.83
2018-04-14T22:32:13.822Z,94.75
2018-04-14T22:35:17.127Z,94.61
2018-04-14T22:38:20.449Z,94.85
2018-04-14T22:41:24.538Z,95.02
2018-04-14T22:44:27.836Z,95.14
2018-04-14T22:47:31.169Z,95.15
2018-04-14T22:50:34.486Z,95.24
2018-04-14T22:53:37.809Z,95.17
2018-04-14T22:56:41.110Z,95.04
2018-04-14T22:59:44.434Z,95.04
2018-04-14T23:02:48.540Z,94.81
2018-04-14T23:05:51.845Z,94.84
2018-04-14T23:08:55.950Z,95.31
2018-04-14T23:11:59.255Z,95.20
2018-04-14T23:15:03.358Z,95.26
2018-04-14T23:18:06.662Z,95.21
2018-04-14T23:21:09.988Z,95.04
2018-04-14T23:24:13.290Z,95.17
2018-04-14T23:27:16.616Z,95.10
2018-04-14T23:30:19.911Z,95.05
2018-04-14T23:33:23.230Z,95.22
2018-04-14T23:36:26.533Z,95.50
2018-04-14T23:39:29.856Z,95.46
2018-04-14T23:42:33.157Z,95.29
2018-04-14T23:45:36.477Z,95.43
2018-04-14T23:48:40.549Z,95.37
2018-04-14T23:51:44.653Z,95.50
2018-04-14T23:54:48.725Z,95.52
2018-04-14T23:57:52.062Z,95.48
